• Join FlightAware (Why Join?)
  • Login
  • US Flag 
04:24AM EDT


 

Airport Tracker/Info


-or-


 

Live Flight TrackerFlight Track Log ✈ SKY726 ✈ 21-Jun-2013 ✈ RJCC / CTS - RJTT / HND

Flight Track Log - Related Links

Times and Time Zones

All times are in EDT time to prevent confusion due to time zone crossing. See the SKY726 flight status page for this flight to view local times or setup timezone preferences in your user account.

Time Position Orientation Groundspeed Altitude Reporting Facility
EDT Latitude Longitude Course Direction KTS MPH feet Rate Location/Type
05:55AM 42.7880 141.6840 44° Northeast 3 3  Level FlightAware
05:55AM 42.7880 141.6850 90° East 120 Level FlightAware
05:58AM 42.5782 141.6237 192° South  Level Estimated
05:58AM 42.7880 141.6860 192° South 5 6  Level FlightAware
06:00AM 42.6205 141.6370 192° South  Level Estimated
06:01AM 42.5189 141.6074 192° South  Level Estimated
06:01AM 42.7680 141.6920 192° South 147 169 700  Level FlightAware
06:01AM 42.7310 141.6980 173° South 168 193 2,900 3,180 Climbing FlightAware
06:02AM 42.7110 141.7030 170° South 179 206 3,700 1,440 Climbing FlightAware
06:02AM 42.6830 141.7090 171° South 231 266 4,200 1,800 Climbing FlightAware
06:02AM 42.6550 141.7140 173° South 243 280 5,200 2,460 Climbing FlightAware
06:03AM 42.6190 141.7210 172° South 259 298 6,500 2,760 Climbing FlightAware
06:03AM 42.5820 141.7230 178° South 262 302 8,000 3,000 Climbing FlightAware
06:04AM 42.5690 141.7230 180° South 274 315 8,500 2,880 Climbing FlightAware
06:04AM 42.5310 141.7260 177° South 272 313 9,900 2,040 Climbing FlightAware
06:05AM 42.4760 141.7290 178° South 310 357 10,900 840 Climbing FlightAware
06:06AM 42.4300 141.7310 178° South 335 386 11,200 180 Climbing FlightAware
06:06AM 42.3450 141.7360 178° South 326 375 11,200 1,080 Level FlightAware
06:07AM 42.2730 141.7400 178° South 341 392 12,700 2,280 Climbing FlightAware
06:08AM 42.2070 141.7440 177° South 357 411 14,500 2,760 Climbing FlightAware
06:08AM 42.1400 141.7470 178° South 355 409 16,600 2,940 Climbing FlightAware
06:09AM 42.0640 141.7520 177° South 373 429 18,700 2,520 Climbing FlightAware
06:10AM 41.9650 141.7570 178° South 390 449 20,800 2,280 Climbing FlightAware
06:11AM 41.8850 141.7500 184° South 394 453 22,600 1,980 Climbing FlightAware
06:12AM 41.8210 141.7320 192° South 394 453 23,900 2,040 Climbing FlightAware
06:12AM 41.7100 141.7000 192° South 412 474 25,900 2,160 Climbing FlightAware
06:13AM 41.6360 141.6790 192° South 412 474 27,100 1,680 Climbing FlightAware
06:14AM 41.5580 141.6570 192° South 428 493 28,200 1,560 Climbing FlightAware
06:14AM 41.4710 141.6320 192° South 426 490 29,400 1,500 Climbing FlightAware
06:15AM 41.3580 141.6000 192° South 441 507 30,800 1,380 Climbing FlightAware
06:16AM 41.2720 141.5760 192° South 440 506 31,700 1,380 Climbing FlightAware
06:17AM 41.2000 141.5560 192° South 447 514 32,600 1,620 Climbing FlightAware
06:17AM 41.1090 141.5310 192° South 430 495 33,900 1,860 Climbing FlightAware
06:18AM 41.0280 141.5080 192° South 424 488 35,300 1,680 Climbing FlightAware
06:19AM 40.9540 141.4870 192° South 409 471 36,300 1,200 Climbing FlightAware
06:20AM 40.8650 141.4620 192° South 413 475 37,100 900 Climbing FlightAware
06:20AM 40.7800 141.4390 192° South 413 475 37,800 540 Climbing FlightAware
06:21AM 40.6810 141.4110 192° South 415 478 38,000 120 Climbing FlightAware
06:22AM 40.6060 141.3910 191° South 417 480 38,000  Level FlightAware
06:23AM 40.5300 141.3700 192° South 416 479 38,000  Level FlightAware
06:23AM 40.4460 141.3470 192° South 415 478 38,000  Level FlightAware
06:24AM 40.3720 141.3270 192° South 413 475 38,000  Level FlightAware
06:25AM 40.2880 141.3040 192° South 413 475 38,000  Level FlightAware
06:25AM 40.2040 141.2810 192° South 412 474 38,000  Level FlightAware
06:26AM 40.1180 141.2570 192° South 410 472 38,000  Level FlightAware
06:27AM 40.0350 141.2350 191° South 411 473 38,000  Level FlightAware
06:28AM 39.9600 141.2140 192° South 409 471 38,000  Level FlightAware
06:28AM 39.8870 141.1950 191° South 407 468 38,000  Level FlightAware
06:29AM 39.8030 141.1720 192° South 398 458 38,000  Level FlightAware
06:30AM 39.7400 141.1550 192° South 407 468 38,000  Level FlightAware
06:30AM 39.6570 141.1330 192° South 408 470 38,000  Level FlightAware
06:31AM 39.5840 141.1130 192° South 408 470 38,000  Level FlightAware
06:32AM 39.4990 141.0910 191° South 398 458 38,000  Level FlightAware
06:33AM 39.4150 141.0680 192° South 396 456 38,000  Level FlightAware
06:33AM 39.3430 141.0490 192° South 394 453 38,000  Level FlightAware
06:34AM 39.2690 141.0300 191° South 393 452 38,000  Level FlightAware
06:35AM 39.1890 141.0080 192° South 393 452 38,000  Level FlightAware
06:35AM 39.1170 140.9890 192° South 394 453 38,000  Level FlightAware
06:36AM 39.0150 140.9630 191° South 392 451 38,000  Level FlightAware
06:37AM 38.9430 140.9440 192° South 397 457 38,000  Level FlightAware
06:38AM 38.8640 140.9230 192° South 396 456 38,000  Level FlightAware
06:38AM 38.7910 140.9040 191° South 396 456 38,000  Level FlightAware
06:39AM 38.7110 140.8830 192° South 396 456 38,000  Level FlightAware
06:40AM 38.6380 140.8640 191° South 396 456 38,000  Level FlightAware
06:40AM 38.5580 140.8430 192° South 396 456 38,000  Level FlightAware
06:41AM 38.4850 140.8240 192° South 396 456 38,000  Level FlightAware
06:42AM 38.4140 140.8060 191° South 396 456 38,000  Level FlightAware
06:43AM 38.3340 140.7850 192° South 396 456 38,000 -900 Level FlightAware
06:43AM 38.2620 140.7670 191° South 392 451 36,800 -2,040 Descending FlightAware
06:44AM 38.1890 140.7480 192° South 381 438 35,300 -2,340 Descending FlightAware
06:45AM 38.1190 140.7300 191° South 379 436 33,700 -2,520 Descending FlightAware
06:45AM 38.0400 140.7100 191° South 390 449 31,700 -2,520 Descending FlightAware
06:46AM 37.9340 140.6830 191° South 379 436 29,400 -2,220 Descending FlightAware
06:47AM 37.8670 140.6660 191° South 370 426 28,100 -1,080 Descending FlightAware
06:48AM 37.7990 140.6480 192° South 371 427 28,000 -120 Descending FlightAware
06:48AM 37.7230 140.6290 191° South 370 426 28,000  Level FlightAware
06:49AM 37.6590 140.6100 193° South 369 425 28,000  Level FlightAware
06:50AM 37.5920 140.5900 193° South 371 427 28,000  Level FlightAware
06:50AM 37.5650 140.5830 192° South 372 428 28,000  Level FlightAware
06:51AM 37.4510 140.5500 193° South 375 432 28,000  Level FlightAware
06:52AM 37.3740 140.5280 193° South 377 434 28,000 -420 Level FlightAware
06:52AM 37.3120 140.5110 192° South 374 430 27,500 -1,620 Descending FlightAware
06:53AM 37.2340 140.4880 193° South 361 415 25,800 -2,280 Descending FlightAware
06:54AM 37.1660 140.4690 193° South 365 420 24,200 -2,340 Descending FlightAware
06:55AM 37.1010 140.4500 193° South 367 422 22,700 -2,700 Descending FlightAware
06:55AM 37.0240 140.4280 193° South 383 441 20,400 -3,000 Descending FlightAware
06:56AM 36.9440 140.4060 192° South 393 452 18,200 -2,280 Descending FlightAware
06:57AM 36.8460 140.3780 193° South 378 435 16,700 -1,500 Descending FlightAware
06:58AM 36.7870 140.3620 192° South 364 419 16,000 -1,500 Descending FlightAware
06:58AM 36.7020 140.3410 191° South 358 412 14,600 -1,680 Descending FlightAware
06:59AM 36.6310 140.3270 189° South 355 409 13,400 -1,740 Descending FlightAware
07:00AM 36.5720 140.3150 189° South 341 392 12,300 -1,380 Descending FlightAware
07:01AM 36.5030 140.2870 198° South 315 362 11,600 -900 Descending FlightAware
07:01AM 36.4320 140.2530 201° Southwest 295 339 10,800 -960 Descending FlightAware
07:02AM 36.3820 140.2280 202° Southwest 285 328 10,100 -1,200 Descending FlightAware
07:03AM 36.3490 140.2120 201° Southwest 282 325 9,500 -1,320 Descending FlightAware
07:03AM 36.3220 140.1990 201° Southwest 281 323 9,000 -1,500 Descending FlightAware
07:03AM 36.2940 140.1850 202° Southwest 278 320 8,400 -1,500 Descending FlightAware
07:04AM 36.2790 140.1780 201° Southwest 277 319 8,200 -300 Descending FlightAware
07:04AM 36.2450 140.1610 202° Southwest 274 315 8,200  Level FlightAware
07:05AM 36.2120 140.1440 203° Southwest 275 316 8,200 -840 Level FlightAware
07:05AM 36.1770 140.1260 203° Southwest 277 319 7,400 -1,500 Descending FlightAware
07:05AM 36.1490 140.1120 202° Southwest 274 315 6,900 -1,200 Descending FlightAware
07:06AM 36.1200 140.0970 203° Southwest 270 311 6,400 -960 Descending FlightAware
07:06AM 36.0960 140.0840 204° Southwest 267 307 6,200 -1,140 Descending FlightAware
07:07AM 36.0490 140.0600 202° Southwest 261 300 5,300 -1,200 Descending FlightAware
07:07AM 36.0340 140.0570 189° South 257 296 5,100 -960 Descending FlightAware
07:07AM 36.0200 140.0560 183° South 254 292 4,900 -960 Descending FlightAware
07:08AM 35.9830 140.0530 184° South 244 281 4,400 -720 Descending FlightAware
07:08AM 35.9500 140.0520 181° South 242 278 4,200 -240 Descending FlightAware
07:09AM 35.9240 140.0530 178° South 242 278 4,200  Level FlightAware
07:09AM 35.8890 140.0560 176° South 225 259 4,200  Level FlightAware
07:10AM 35.8630 140.0580 176° South 217 250 4,200  Level FlightAware
07:11AM 35.8070 140.0620 177° South 208 239 4,200  Level FlightAware
07:11AM 35.7520 140.0630 179° South 203 234 4,200  Level FlightAware
07:12AM 35.7430 140.0570 208° Southwest 209 241 4,200  Level FlightAware
07:12AM 35.7170 140.0350 214° Southwest 188 216 4,200  Level FlightAware
07:13AM 35.6950 140.0080 225° Southwest 186 214 4,200 -360 Level FlightAware
07:13AM 35.6740 139.9820 225° Southwest 190 219 3,800 -780 Descending FlightAware
07:14AM 35.6600 139.9660 223° Southwest 189 217 3,500 -960 Descending FlightAware
07:14AM 35.6410 139.9430 225° Southwest 177 204 3,000 -1,020 Descending FlightAware
07:15AM 35.6270 139.9260 225° Southwest 165 190 2,600 -960 Descending FlightAware
07:15AM 35.6100 139.9050 225° Southwest 147 169 2,100 -720 Descending FlightAware
07:15AM 35.6070 139.9020 219° Southwest 147 169 2,100 -600 Level FlightAware
07:16AM 35.5950 139.8880 223° Southwest 147 169 1,700 -900 Descending FlightAware
07:16AM 35.5740 139.8620 225° Southwest 141 162 1,200 -960 Descending FlightAware
07:17AM 35.5660 139.8510 228° Southwest 143 165 900 -720 Descending FlightAware
07:17AM 35.5520 139.8350 223° Southwest 138 159 600 -720 Descending FlightAware
07:18AM 35.5370 139.8180 223° Southwest 138 159 200 -420 Descending FlightAware
07:18AM 35.5260 139.8040 226° Southwest 138 159 200  Level FlightAware
07:19AM 35.5280 139.8070 51° Northeast 10 12 -300 Descending FlightAware
07:19AM 35.5290 139.8060 321° Northwest 9 10  Level FlightAware
07:21AM 35.5310 139.8050 338° Northwest 15 17  Level FlightAware
07:21AM 35.5350 139.8010 321° Northwest 15 17  Level FlightAware
07:21AM 35.5370 139.8000 338° Northwest 11 13  Level FlightAware
07:24AM 35.5523 139.7797 313° West  Level Estimated
07:24AM 35.5350 139.7910 313° West 13 15  Level FlightAware
07:24AM 35.5360 139.7890 302° West 15 17  Level FlightAware
07:25AM 35.5370 139.7880 321° Northwest 5 6  Level FlightAware
07:26AM 35.5390 139.7860 321° Northwest 22 25  Level FlightAware
07:27AM 35.5440 139.7830 334° Northwest 10 12  Level FlightAware
07:27AM 35.5450 139.7830 360° North 11 13  Level FlightAware
07:28AM 35.5470 139.7810 321° Northwest 14 16  Level FlightAware
07:28AM 35.5480 139.7800 321° Northwest 15 17  Level FlightAware
07:29AM 35.5510 139.7780 332° Northwest 15 17  Level FlightAware
07:29AM 35.5520 139.7780 360° North 7 8  Level FlightAware
07:31AM 35.5530 139.7820 79° East 2 2  Level FlightAware
07:32AM 35.5523 139.7797 79° East  Level Estimated